sensor_id;sensor_type;location;lat;lon;timestamp;P1;durP1;ratioP1;P2;durP2;ratioP2
31676;SDS011;18385;51.572;6.578;2023-04-03T00:00:30;8.45;;;4.00;;
31676;SDS011;18385;51.572;6.578;2023-04-03T00:02:56;7.78;;;3.53;;
31676;SDS011;18385;51.572;6.578;2023-04-03T00:05:22;7.80;;;4.80;;
31676;SDS011;18385;51.572;6.578;2023-04-03T00:07:48;7.75;;;4.30;;
31676;SDS011;18385;51.572;6.578;2023-04-03T00:10:15;7.35;;;4.15;;
31676;SDS011;18385;51.572;6.578;2023-04-03T00:12:41;9.32;;;3.78;;
31676;SDS011;18385;51.572;6.578;2023-04-03T00:15:07;6.38;;;3.95;;
31676;SDS011;18385;51.572;6.578;2023-04-03T00:17:33;8.65;;;4.13;;
31676;SDS011;18385;51.572;6.578;2023-04-03T00:19:58;10.63;;;4.38;;
31676;SDS011;18385;51.572;6.578;2023-04-03T00:22:24;10.02;;;4.47;;
31676;SDS011;18385;51.572;6.578;2023-04-03T00:24:51;7.53;;;3.67;;
31676;SDS011;18385;51.572;6.578;2023-04-03T00:27:17;5.82;;;3.30;;
31676;SDS011;18385;51.572;6.578;2023-04-03T00:29:43;8.95;;;3.92;;
31676;SDS011;18385;51.572;6.578;2023-04-03T00:32:08;11.88;;;3.83;;
31676;SDS011;18385;51.572;6.578;2023-04-03T00:34:35;8.95;;;3.50;;
31676;SDS011;18385;51.572;6.578;2023-04-03T00:37:00;7.10;;;3.00;;
31676;SDS011;18385;51.572;6.578;2023-04-03T00:39:26;6.72;;;3.08;;
31676;SDS011;18385;51.572;6.578;2023-04-03T00:41:52;5.85;;;3.08;;
31676;SDS011;18385;51.572;6.578;2023-04-03T00:44:19;6.15;;;3.08;;
31676;SDS011;18385;51.572;6.578;2023-04-03T00:47:10;4.32;;;2.30;;
31676;SDS011;18385;51.572;6.578;2023-04-03T00:49:37;5.18;;;2.47;;
31676;SDS011;18385;51.572;6.578;2023-04-03T00:52:05;4.72;;;3.03;;
31676;SDS011;18385;51.572;6.578;2023-04-03T00:54:37;5.35;;;2.10;;
31676;SDS011;18385;51.572;6.578;2023-04-03T00:57:05;3.97;;;2.60;;
31676;SDS011;18385;51.572;6.578;2023-04-03T00:59:32;5.30;;;2.17;;
31676;SDS011;18385;51.572;6.578;2023-04-03T01:02:04;4.57;;;2.00;;
31676;SDS011;18385;51.572;6.578;2023-04-03T01:04:36;5.20;;;2.10;;
31676;SDS011;18385;51.572;6.578;2023-04-03T01:07:12;5.35;;;2.90;;
31676;SDS011;18385;51.572;6.578;2023-04-03T01:09:43;4.85;;;2.22;;
31676;SDS011;18385;51.572;6.578;2023-04-03T01:14:41;6.07;;;1.95;;
31676;SDS011;18385;51.572;6.578;2023-04-03T01:20:41;4.30;;;1.85;;
31676;SDS011;18385;51.572;6.578;2023-04-03T01:22:50;2.58;;;1.70;;
31676;SDS011;18385;51.572;6.578;2023-04-03T01:25:25;4.80;;;2.50;;
31676;SDS011;18385;51.572;6.578;2023-04-03T01:27:51;4.85;;;1.90;;
31676;SDS011;18385;51.572;6.578;2023-04-03T01:30:18;5.60;;;1.73;;
31676;SDS011;18385;51.572;6.578;2023-04-03T01:32:45;3.13;;;1.60;;
31676;SDS011;18385;51.572;6.578;2023-04-03T01:35:12;3.67;;;1.60;;
31676;SDS011;18385;51.572;6.578;2023-04-03T01:37:37;8.82;;;1.42;;
31676;SDS011;18385;51.572;6.578;2023-04-03T01:40:04;3.42;;;1.45;;
31676;SDS011;18385;51.572;6.578;2023-04-03T01:42:31;3.70;;;1.85;;
31676;SDS011;18385;51.572;6.578;2023-04-03T01:44:57;3.42;;;1.52;;
31676;SDS011;18385;51.572;6.578;2023-04-03T01:47:22;5.20;;;1.92;;
31676;SDS011;18385;51.572;6.578;2023-04-03T01:49:49;6.30;;;1.55;;
31676;SDS011;18385;51.572;6.578;2023-04-03T01:52:15;5.97;;;1.63;;
31676;SDS011;18385;51.572;6.578;2023-04-03T01:54:40;2.63;;;1.15;;
31676;SDS011;18385;51.572;6.578;2023-04-03T01:57:06;4.20;;;1.65;;
31676;SDS011;18385;51.572;6.578;2023-04-03T01:59:32;3.65;;;1.50;;
31676;SDS011;18385;51.572;6.578;2023-04-03T02:01:58;3.13;;;1.20;;
31676;SDS011;18385;51.572;6.578;2023-04-03T02:04:23;3.97;;;1.02;;
31676;SDS011;18385;51.572;6.578;2023-04-03T02:06:49;5.80;;;1.52;;
31676;SDS011;18385;51.572;6.578;2023-04-03T02:09:15;2.53;;;1.30;;
31676;SDS011;18385;51.572;6.578;2023-04-03T02:11:40;3.00;;;1.25;;
31676;SDS011;18385;51.572;6.578;2023-04-03T02:14:06;5.97;;;1.40;;
31676;SDS011;18385;51.572;6.578;2023-04-03T02:16:33;3.85;;;1.00;;
31676;SDS011;18385;51.572;6.578;2023-04-03T02:18:58;4.18;;;0.90;;
31676;SDS011;18385;51.572;6.578;2023-04-03T02:21:24;3.60;;;1.10;;
31676;SDS011;18385;51.572;6.578;2023-04-03T02:23:50;5.28;;;1.33;;
31676;SDS011;18385;51.572;6.578;2023-04-03T02:26:17;7.07;;;1.33;;
31676;SDS011;18385;51.572;6.578;2023-04-03T02:28:44;4.88;;;1.00;;
31676;SDS011;18385;51.572;6.578;2023-04-03T02:31:11;3.08;;;0.90;;
31676;SDS011;18385;51.572;6.578;2023-04-03T02:33:39;4.22;;;0.85;;
31676;SDS011;18385;51.572;6.578;2023-04-03T02:36:08;2.03;;;0.85;;
31676;SDS011;18385;51.572;6.578;2023-04-03T02:38:34;4.15;;;1.10;;
31676;SDS011;18385;51.572;6.578;2023-04-03T02:41:05;3.78;;;0.80;;
31676;SDS011;18385;51.572;6.578;2023-04-03T02:43:33;5.72;;;1.27;;
31676;SDS011;18385;51.572;6.578;2023-04-03T02:45:59;4.72;;;0.90;;
31676;SDS011;18385;51.572;6.578;2023-04-03T02:48:25;3.33;;;1.08;;
31676;SDS011;18385;51.572;6.578;2023-04-03T02:50:50;3.78;;;0.73;;
31676;SDS011;18385;51.572;6.578;2023-04-03T02:53:16;5.25;;;0.90;;
31676;SDS011;18385;51.572;6.578;2023-04-03T02:55:42;4.00;;;1.05;;
31676;SDS011;18385;51.572;6.578;2023-04-03T02:58:08;4.05;;;1.02;;
31676;SDS011;18385;51.572;6.578;2023-04-03T03:00:34;4.80;;;1.00;;
31676;SDS011;18385;51.572;6.578;2023-04-03T03:03:00;2.85;;;0.65;;
31676;SDS011;18385;51.572;6.578;2023-04-03T03:05:26;5.63;;;0.95;;
31676;SDS011;18385;51.572;6.578;2023-04-03T03:07:52;3.85;;;0.90;;
31676;SDS011;18385;51.572;6.578;2023-04-03T03:10:18;3.95;;;0.82;;
31676;SDS011;18385;51.572;6.578;2023-04-03T03:12:44;1.98;;;0.75;;
31676;SDS011;18385;51.572;6.578;2023-04-03T03:15:10;7.05;;;1.33;;
31676;SDS011;18385;51.572;6.578;2023-04-03T03:17:36;5.97;;;0.80;;
31676;SDS011;18385;51.572;6.578;2023-04-03T03:20:02;6.82;;;1.50;;
31676;SDS011;18385;51.572;6.578;2023-04-03T03:22:29;2.70;;;0.90;;
31676;SDS011;18385;51.572;6.578;2023-04-03T03:24:55;1.70;;;0.55;;
31676;SDS011;18385;51.572;6.578;2023-04-03T03:27:20;6.07;;;0.98;;
31676;SDS011;18385;51.572;6.578;2023-04-03T03:29:46;2.70;;;0.77;;
31676;SDS011;18385;51.572;6.578;2023-04-03T03:32:13;7.30;;;0.70;;
31676;SDS011;18385;51.572;6.578;2023-04-03T03:34:38;5.53;;;0.80;;
31676;SDS011;18385;51.572;6.578;2023-04-03T03:37:04;2.22;;;0.80;;
31676;SDS011;18385;51.572;6.578;2023-04-03T03:39:30;3.33;;;0.90;;
31676;SDS011;18385;51.572;6.578;2023-04-03T03:41:55;2.85;;;0.90;;
31676;SDS011;18385;51.572;6.578;2023-04-03T03:44:22;2.95;;;0.70;;
31676;SDS011;18385;51.572;6.578;2023-04-03T03:46:47;4.15;;;0.80;;
31676;SDS011;18385;51.572;6.578;2023-04-03T03:49:13;4.97;;;0.70;;
31676;SDS011;18385;51.572;6.578;2023-04-03T03:51:39;4.13;;;0.65;;
31676;SDS011;18385;51.572;6.578;2023-04-03T03:54:06;2.83;;;0.73;;
31676;SDS011;18385;51.572;6.578;2023-04-03T03:56:33;5.30;;;0.80;;
31676;SDS011;18385;51.572;6.578;2023-04-03T03:58:59;3.85;;;0.90;;
31676;SDS011;18385;51.572;6.578;2023-04-03T04:01:25;3.92;;;0.82;;
31676;SDS011;18385;51.572;6.578;2023-04-03T04:03:51;5.57;;;1.38;;
31676;SDS011;18385;51.572;6.578;2023-04-03T04:06:22;2.15;;;0.85;;
31676;SDS011;18385;51.572;6.578;2023-04-03T04:08:48;5.82;;;1.10;;
31676;SDS011;18385;51.572;6.578;2023-04-03T04:11:14;2.85;;;0.80;;
31676;SDS011;18385;51.572;6.578;2023-04-03T04:13:42;4.38;;;1.23;;
31676;SDS011;18385;51.572;6.578;2023-04-03T04:16:10;3.33;;;1.05;;
31676;SDS011;18385;51.572;6.578;2023-04-03T04:18:37;2.75;;;0.95;;
31676;SDS011;18385;51.572;6.578;2023-04-03T04:21:02;2.92;;;1.10;;
31676;SDS011;18385;51.572;6.578;2023-04-03T04:23:28;1.83;;;1.08;;
31676;SDS011;18385;51.572;6.578;2023-04-03T04:25:57;3.10;;;1.10;;
31676;SDS011;18385;51.572;6.578;2023-04-03T04:28:24;3.33;;;1.35;;
31676;SDS011;18385;51.572;6.578;2023-04-03T04:30:52;4.28;;;1.10;;
31676;SDS011;18385;51.572;6.578;2023-04-03T04:33:19;3.65;;;1.10;;
31676;SDS011;18385;51.572;6.578;2023-04-03T04:35:46;3.35;;;0.77;;
31676;SDS011;18385;51.572;6.578;2023-04-03T04:38:14;6.00;;;1.00;;
31676;SDS011;18385;51.572;6.578;2023-04-03T04:40:40;6.68;;;1.00;;
31676;SDS011;18385;51.572;6.578;2023-04-03T04:43:06;4.57;;;0.85;;
31676;SDS011;18385;51.572;6.578;2023-04-03T04:45:33;5.55;;;1.02;;
31676;SDS011;18385;51.572;6.578;2023-04-03T04:47:59;9.00;;;1.10;;
31676;SDS011;18385;51.572;6.578;2023-04-03T04:50:25;4.10;;;0.82;;
31676;SDS011;18385;51.572;6.578;2023-04-03T04:52:52;4.65;;;1.00;;
31676;SDS011;18385;51.572;6.578;2023-04-03T04:55:17;3.33;;;0.90;;
31676;SDS011;18385;51.572;6.578;2023-04-03T04:57:44;4.60;;;1.08;;
31676;SDS011;18385;51.572;6.578;2023-04-03T05:00:09;4.03;;;1.00;;
31676;SDS011;18385;51.572;6.578;2023-04-03T05:02:36;5.22;;;1.67;;
31676;SDS011;18385;51.572;6.578;2023-04-03T05:05:02;8.13;;;1.73;;
31676;SDS011;18385;51.572;6.578;2023-04-03T05:07:28;2.55;;;0.90;;
31676;SDS011;18385;51.572;6.578;2023-04-03T05:09:56;6.07;;;1.33;;
31676;SDS011;18385;51.572;6.578;2023-04-03T05:12:22;3.17;;;0.88;;
31676;SDS011;18385;51.572;6.578;2023-04-03T05:14:53;3.95;;;0.93;;
31676;SDS011;18385;51.572;6.578;2023-04-03T05:17:19;3.47;;;0.90;;
31676;SDS011;18385;51.572;6.578;2023-04-03T05:19:49;4.57;;;0.68;;
31676;SDS011;18385;51.572;6.578;2023-04-03T05:22:18;3.83;;;0.80;;
31676;SDS011;18385;51.572;6.578;2023-04-03T05:24:44;3.38;;;0.50;;
31676;SDS011;18385;51.572;6.578;2023-04-03T05:27:10;4.93;;;1.48;;
31676;SDS011;18385;51.572;6.578;2023-04-03T05:29:40;5.13;;;0.80;;
31676;SDS011;18385;51.572;6.578;2023-04-03T05:34:36;4.47;;;0.82;;
31676;SDS011;18385;51.572;6.578;2023-04-03T05:37:02;6.97;;;1.08;;
31676;SDS011;18385;51.572;6.578;2023-04-03T05:39:29;5.10;;;0.70;;
31676;SDS011;18385;51.572;6.578;2023-04-03T05:41:57;6.50;;;1.25;;
31676;SDS011;18385;51.572;6.578;2023-04-03T05:44:23;1.90;;;0.68;;
31676;SDS011;18385;51.572;6.578;2023-04-03T05:46:50;3.53;;;1.38;;
31676;SDS011;18385;51.572;6.578;2023-04-03T05:49:16;6.38;;;1.05;;
31676;SDS011;18385;51.572;6.578;2023-04-03T05:51:41;4.18;;;1.30;;
31676;SDS011;18385;51.572;6.578;2023-04-03T05:54:26;4.72;;;0.93;;
31676;SDS011;18385;51.572;6.578;2023-04-03T05:57:00;6.13;;;1.02;;
31676;SDS011;18385;51.572;6.578;2023-04-03T05:59:27;5.63;;;2.17;;
31676;SDS011;18385;51.572;6.578;2023-04-03T06:01:55;4.00;;;1.15;;
31676;SDS011;18385;51.572;6.578;2023-04-03T06:04:21;2.67;;;0.90;;
31676;SDS011;18385;51.572;6.578;2023-04-03T06:06:48;4.45;;;0.90;;
31676;SDS011;18385;51.572;6.578;2023-04-03T06:09:19;2.78;;;0.80;;
31676;SDS011;18385;51.572;6.578;2023-04-03T06:11:46;4.38;;;1.10;;
31676;SDS011;18385;51.572;6.578;2023-04-03T06:14:12;6.50;;;0.85;;
31676;SDS011;18385;51.572;6.578;2023-04-03T06:16:38;4.30;;;0.93;;
31676;SDS011;18385;51.572;6.578;2023-04-03T06:19:07;5.05;;;1.10;;
31676;SDS011;18385;51.572;6.578;2023-04-03T06:21:35;2.90;;;0.95;;
31676;SDS011;18385;51.572;6.578;2023-04-03T06:24:02;4.07;;;0.80;;
31676;SDS011;18385;51.572;6.578;2023-04-03T06:26:29;3.60;;;1.58;;
31676;SDS011;18385;51.572;6.578;2023-04-03T06:28:54;5.43;;;0.95;;
31676;SDS011;18385;51.572;6.578;2023-04-03T06:31:20;2.72;;;1.00;;
31676;SDS011;18385;51.572;6.578;2023-04-03T06:33:46;2.65;;;0.88;;
31676;SDS011;18385;51.572;6.578;2023-04-03T06:36:12;5.35;;;1.17;;
31676;SDS011;18385;51.572;6.578;2023-04-03T06:38:38;4.38;;;0.88;;
31676;SDS011;18385;51.572;6.578;2023-04-03T06:41:03;4.07;;;0.95;;
31676;SDS011;18385;51.572;6.578;2023-04-03T06:43:29;6.63;;;1.38;;
31676;SDS011;18385;51.572;6.578;2023-04-03T06:45:56;5.40;;;0.80;;
31676;SDS011;18385;51.572;6.578;2023-04-03T06:48:22;6.55;;;1.00;;
31676;SDS011;18385;51.572;6.578;2023-04-03T06:50:48;5.45;;;0.88;;
31676;SDS011;18385;51.572;6.578;2023-04-03T06:53:14;3.75;;;1.05;;
31676;SDS011;18385;51.572;6.578;2023-04-03T06:55:39;4.05;;;0.90;;
31676;SDS011;18385;51.572;6.578;2023-04-03T06:58:06;5.97;;;1.15;;
31676;SDS011;18385;51.572;6.578;2023-04-03T07:00:32;4.22;;;1.70;;
31676;SDS011;18385;51.572;6.578;2023-04-03T07:02:58;8.55;;;0.88;;
31676;SDS011;18385;51.572;6.578;2023-04-03T07:05:24;4.47;;;0.98;;
31676;SDS011;18385;51.572;6.578;2023-04-03T07:07:51;3.92;;;0.95;;
31676;SDS011;18385;51.572;6.578;2023-04-03T07:10:18;4.95;;;1.40;;
31676;SDS011;18385;51.572;6.578;2023-04-03T07:12:44;4.15;;;0.73;;
31676;SDS011;18385;51.572;6.578;2023-04-03T07:15:09;4.47;;;1.00;;
31676;SDS011;18385;51.572;6.578;2023-04-03T07:17:37;3.08;;;1.15;;
31676;SDS011;18385;51.572;6.578;2023-04-03T07:20:03;2.78;;;0.70;;
31676;SDS011;18385;51.572;6.578;2023-04-03T07:22:30;7.45;;;1.10;;
31676;SDS011;18385;51.572;6.578;2023-04-03T07:24:55;5.90;;;1.23;;
31676;SDS011;18385;51.572;6.578;2023-04-03T07:27:21;4.72;;;1.13;;
31676;SDS011;18385;51.572;6.578;2023-04-03T07:29:47;4.25;;;1.48;;
31676;SDS011;18385;51.572;6.578;2023-04-03T07:32:13;5.30;;;0.80;;
31676;SDS011;18385;51.572;6.578;2023-04-03T07:34:40;3.88;;;0.95;;
31676;SDS011;18385;51.572;6.578;2023-04-03T07:37:08;5.50;;;1.30;;
31676;SDS011;18385;51.572;6.578;2023-04-03T07:39:34;5.25;;;1.20;;
31676;SDS011;18385;51.572;6.578;2023-04-03T07:42:00;4.22;;;0.77;;
31676;SDS011;18385;51.572;6.578;2023-04-03T07:44:26;2.83;;;0.90;;
31676;SDS011;18385;51.572;6.578;2023-04-03T07:46:53;5.72;;;1.50;;
31676;SDS011;18385;51.572;6.578;2023-04-03T07:49:20;3.30;;;0.90;;
31676;SDS011;18385;51.572;6.578;2023-04-03T07:51:48;3.80;;;1.10;;
31676;SDS011;18385;51.572;6.578;2023-04-03T07:54:14;4.97;;;0.82;;
31676;SDS011;18385;51.572;6.578;2023-04-03T07:56:40;3.05;;;0.90;;
31676;SDS011;18385;51.572;6.578;2023-04-03T07:59:07;3.95;;;1.08;;
31676;SDS011;18385;51.572;6.578;2023-04-03T08:01:36;2.50;;;0.93;;
31676;SDS011;18385;51.572;6.578;2023-04-03T08:04:02;4.03;;;1.25;;
31676;SDS011;18385;51.572;6.578;2023-04-03T08:06:28;2.70;;;0.90;;
31676;SDS011;18385;51.572;6.578;2023-04-03T08:08:58;3.92;;;1.02;;
31676;SDS011;18385;51.572;6.578;2023-04-03T08:11:23;5.88;;;1.20;;
31676;SDS011;18385;51.572;6.578;2023-04-03T08:13:51;2.72;;;0.88;;
31676;SDS011;18385;51.572;6.578;2023-04-03T08:16:18;3.63;;;0.90;;
31676;SDS011;18385;51.572;6.578;2023-04-03T08:18:47;3.40;;;0.80;;
31676;SDS011;18385;51.572;6.578;2023-04-03T08:21:13;6.65;;;1.27;;
31676;SDS011;18385;51.572;6.578;2023-04-03T08:23:39;3.47;;;0.60;;
31676;SDS011;18385;51.572;6.578;2023-04-03T08:26:10;2.33;;;0.50;;
31676;SDS011;18385;51.572;6.578;2023-04-03T08:28:37;2.25;;;0.70;;
31676;SDS011;18385;51.572;6.578;2023-04-03T08:31:08;2.88;;;0.60;;
31676;SDS011;18385;51.572;6.578;2023-04-03T08:33:38;4.00;;;0.80;;
31676;SDS011;18385;51.572;6.578;2023-04-03T08:36:05;3.53;;;0.70;;
31676;SDS011;18385;51.572;6.578;2023-04-03T08:38:33;4.30;;;1.35;;
31676;SDS011;18385;51.572;6.578;2023-04-03T08:41:24;4.00;;;0.73;;
31676;SDS011;18385;51.572;6.578;2023-04-03T08:50:05;2.60;;;0.63;;
31676;SDS011;18385;51.572;6.578;2023-04-03T08:52:44;2.20;;;0.40;;
31676;SDS011;18385;51.572;6.578;2023-04-03T08:57:51;2.22;;;0.60;;
31676;SDS011;18385;51.572;6.578;2023-04-03T09:00:25;2.03;;;0.63;;
31676;SDS011;18385;51.572;6.578;2023-04-03T09:02:55;1.85;;;0.68;;
31676;SDS011;18385;51.572;6.578;2023-04-03T09:10:49;3.53;;;0.30;;
31676;SDS011;18385;51.572;6.578;2023-04-03T09:16:19;2.20;;;0.55;;
31676;SDS011;18385;51.572;6.578;2023-04-03T09:22:00;3.28;;;0.30;;
31676;SDS011;18385;51.572;6.578;2023-04-03T09:24:36;2.75;;;0.30;;
31676;SDS011;18385;51.572;6.578;2023-04-03T09:27:06;2.50;;;0.40;;
31676;SDS011;18385;51.572;6.578;2023-04-03T09:29:36;2.35;;;0.55;;
31676;SDS011;18385;51.572;6.578;2023-04-03T09:32:25;3.60;;;0.52;;
31676;SDS011;18385;51.572;6.578;2023-04-03T09:37:58;2.75;;;0.35;;
31676;SDS011;18385;51.572;6.578;2023-04-03T09:40:41;2.33;;;0.50;;
31676;SDS011;18385;51.572;6.578;2023-04-03T09:45:52;2.00;;;0.38;;
31676;SDS011;18385;51.572;6.578;2023-04-03T09:48:23;2.40;;;0.70;;
31676;SDS011;18385;51.572;6.578;2023-04-03T09:53:28;2.08;;;0.30;;
31676;SDS011;18385;51.572;6.578;2023-04-03T09:56:00;1.25;;;0.30;;
31676;SDS011;18385;51.572;6.578;2023-04-03T09:58:29;1.73;;;0.32;;
31676;SDS011;18385;51.572;6.578;2023-04-03T10:00:59;1.55;;;0.30;;
31676;SDS011;18385;51.572;6.578;2023-04-03T10:03:35;0.73;;;0.30;;
31676;SDS011;18385;51.572;6.578;2023-04-03T10:06:14;4.22;;;0.60;;
31676;SDS011;18385;51.572;6.578;2023-04-03T10:08:58;0.98;;;0.28;;
31676;SDS011;18385;51.572;6.578;2023-04-03T10:11:26;1.00;;;0.32;;
31676;SDS011;18385;51.572;6.578;2023-04-03T10:13:59;1.50;;;0.40;;
31676;SDS011;18385;51.572;6.578;2023-04-03T10:16:44;1.15;;;0.20;;
31676;SDS011;18385;51.572;6.578;2023-04-03T10:22:00;1.50;;;0.37;;
31676;SDS011;18385;51.572;6.578;2023-04-03T10:27:36;1.60;;;0.32;;
31676;SDS011;18385;51.572;6.578;2023-04-03T10:30:46;1.00;;;0.30;;
31676;SDS011;18385;51.572;6.578;2023-04-03T10:47:20;1.20;;;0.32;;
31676;SDS011;18385;51.572;6.578;2023-04-03T11:00:54;0.85;;;0.20;;
31676;SDS011;18385;51.572;6.578;2023-04-03T11:03:32;2.33;;;0.32;;
31676;SDS011;18385;51.572;6.578;2023-04-03T11:06:10;2.35;;;0.40;;
31676;SDS011;18385;51.572;6.578;2023-04-03T11:08:40;1.83;;;0.33;;
31676;SDS011;18385;51.572;6.578;2023-04-03T11:11:19;1.65;;;0.30;;
31676;SDS011;18385;51.572;6.578;2023-04-03T11:14:03;0.98;;;0.30;;
31676;SDS011;18385;51.572;6.578;2023-04-03T11:16:42;2.05;;;0.60;;
31676;SDS011;18385;51.572;6.578;2023-04-03T11:19:14;0.75;;;0.38;;
31676;SDS011;18385;51.572;6.578;2023-04-03T11:22:04;2.13;;;0.20;;
31676;SDS011;18385;51.572;6.578;2023-04-03T11:24:42;2.10;;;0.40;;
31676;SDS011;18385;51.572;6.578;2023-04-03T11:27:16;2.60;;;0.40;;
31676;SDS011;18385;51.572;6.578;2023-04-03T11:29:47;3.33;;;0.60;;
31676;SDS011;18385;51.572;6.578;2023-04-03T11:32:21;1.42;;;0.50;;
31676;SDS011;18385;51.572;6.578;2023-04-03T11:35:16;1.58;;;0.80;;
31676;SDS011;18385;51.572;6.578;2023-04-03T11:37:47;2.05;;;0.45;;
31676;SDS011;18385;51.572;6.578;2023-04-03T11:42:49;2.13;;;0.50;;
31676;SDS011;18385;51.572;6.578;2023-04-03T11:50:44;1.55;;;0.60;;
31676;SDS011;18385;51.572;6.578;2023-04-03T11:58:32;1.25;;;0.30;;
31676;SDS011;18385;51.572;6.578;2023-04-03T12:01:00;0.93;;;0.40;;
31676;SDS011;18385;51.572;6.578;2023-04-03T12:13:39;2.60;;;0.40;;
31676;SDS011;18385;51.572;6.578;2023-04-03T12:16:06;1.58;;;0.50;;
31676;SDS011;18385;51.572;6.578;2023-04-03T12:32:01;1.30;;;0.40;;
31676;SDS011;18385;51.572;6.578;2023-04-03T12:48:39;1.88;;;0.60;;
31676;SDS011;18385;51.572;6.578;2023-04-03T12:51:18;3.65;;;0.55;;
31676;SDS011;18385;51.572;6.578;2023-04-03T12:53:55;2.90;;;0.77;;
31676;SDS011;18385;51.572;6.578;2023-04-03T12:56:42;2.28;;;0.60;;
31676;SDS011;18385;51.572;6.578;2023-04-03T13:01:43;2.95;;;0.50;;
31676;SDS011;18385;51.572;6.578;2023-04-03T13:04:17;5.95;;;0.70;;
31676;SDS011;18385;51.572;6.578;2023-04-03T13:06:43;3.17;;;1.23;;
31676;SDS011;18385;51.572;6.578;2023-04-03T13:09:23;4.53;;;0.60;;
31676;SDS011;18385;51.572;6.578;2023-04-03T13:11:49;2.30;;;0.43;;
31676;SDS011;18385;51.572;6.578;2023-04-03T13:14:22;3.50;;;0.30;;
31676;SDS011;18385;51.572;6.578;2023-04-03T13:19:24;14.77;;;1.58;;
31676;SDS011;18385;51.572;6.578;2023-04-03T13:21:52;1.85;;;0.50;;
31676;SDS011;18385;51.572;6.578;2023-04-03T13:24:25;1.20;;;0.50;;
31676;SDS011;18385;51.572;6.578;2023-04-03T13:26:52;1.70;;;0.70;;
31676;SDS011;18385;51.572;6.578;2023-04-03T13:29:29;2.53;;;0.50;;
31676;SDS011;18385;51.572;6.578;2023-04-03T13:32:00;2.17;;;0.55;;
31676;SDS011;18385;51.572;6.578;2023-04-03T13:34:28;1.60;;;0.45;;
31676;SDS011;18385;51.572;6.578;2023-04-03T13:37:01;1.88;;;0.30;;
31676;SDS011;18385;51.572;6.578;2023-04-03T13:39:36;1.17;;;0.40;;
31676;SDS011;18385;51.572;6.578;2023-04-03T13:42:20;3.33;;;0.50;;
31676;SDS011;18385;51.572;6.578;2023-04-03T13:44:48;1.65;;;0.73;;
31676;SDS011;18385;51.572;6.578;2023-04-03T13:47:37;4.60;;;0.88;;
31676;SDS011;18385;51.572;6.578;2023-04-03T13:52:41;3.20;;;0.77;;
31676;SDS011;18385;51.572;6.578;2023-04-03T13:55:17;2.35;;;0.63;;
31676;SDS011;18385;51.572;6.578;2023-04-03T13:57:50;2.67;;;0.43;;
31676;SDS011;18385;51.572;6.578;2023-04-03T14:05:44;1.67;;;0.68;;
31676;SDS011;18385;51.572;6.578;2023-04-03T14:08:10;2.55;;;0.68;;
31676;SDS011;18385;51.572;6.578;2023-04-03T14:10:36;3.15;;;0.60;;
31676;SDS011;18385;51.572;6.578;2023-04-03T14:13:02;1.63;;;0.60;;
31676;SDS011;18385;51.572;6.578;2023-04-03T14:15:28;3.90;;;0.50;;
31676;SDS011;18385;51.572;6.578;2023-04-03T14:17:57;1.55;;;0.52;;
31676;SDS011;18385;51.572;6.578;2023-04-03T14:20:24;1.88;;;0.52;;
31676;SDS011;18385;51.572;6.578;2023-04-03T14:22:51;3.22;;;0.50;;
31676;SDS011;18385;51.572;6.578;2023-04-03T14:25:19;2.25;;;0.70;;
31676;SDS011;18385;51.572;6.578;2023-04-03T14:27:48;3.63;;;0.60;;
31676;SDS011;18385;51.572;6.578;2023-04-03T14:32:49;3.90;;;0.60;;
31676;SDS011;18385;51.572;6.578;2023-04-03T14:35:16;2.15;;;0.80;;
31676;SDS011;18385;51.572;6.578;2023-04-03T14:37:42;2.65;;;0.63;;
31676;SDS011;18385;51.572;6.578;2023-04-03T14:40:11;1.83;;;0.60;;
31676;SDS011;18385;51.572;6.578;2023-04-03T14:42:39;2.53;;;0.65;;
31676;SDS011;18385;51.572;6.578;2023-04-03T14:45:07;2.85;;;0.70;;
31676;SDS011;18385;51.572;6.578;2023-04-03T14:47:36;4.95;;;1.33;;
31676;SDS011;18385;51.572;6.578;2023-04-03T14:50:06;3.95;;;0.70;;
31676;SDS011;18385;51.572;6.578;2023-04-03T14:52:36;2.83;;;0.90;;
31676;SDS011;18385;51.572;6.578;2023-04-03T14:55:03;2.05;;;0.50;;
31676;SDS011;18385;51.572;6.578;2023-04-03T14:59:56;2.38;;;0.55;;
31676;SDS011;18385;51.572;6.578;2023-04-03T15:04:56;1.55;;;0.55;;
31676;SDS011;18385;51.572;6.578;2023-04-03T15:07:23;1.52;;;0.57;;
31676;SDS011;18385;51.572;6.578;2023-04-03T15:09:51;5.85;;;1.33;;
31676;SDS011;18385;51.572;6.578;2023-04-03T15:12:17;3.95;;;1.10;;
31676;SDS011;18385;51.572;6.578;2023-04-03T15:14:43;3.05;;;1.45;;
31676;SDS011;18385;51.572;6.578;2023-04-03T15:17:12;4.63;;;1.77;;
31676;SDS011;18385;51.572;6.578;2023-04-03T15:19:45;3.17;;;1.50;;
31676;SDS011;18385;51.572;6.578;2023-04-03T15:22:14;3.58;;;1.23;;
31676;SDS011;18385;51.572;6.578;2023-04-03T15:24:42;2.67;;;0.82;;
31676;SDS011;18385;51.572;6.578;2023-04-03T15:27:08;1.92;;;0.70;;
31676;SDS011;18385;51.572;6.578;2023-04-03T15:29:36;3.47;;;0.90;;
31676;SDS011;18385;51.572;6.578;2023-04-03T15:32:02;2.92;;;0.73;;
31676;SDS011;18385;51.572;6.578;2023-04-03T15:34:28;4.22;;;1.02;;
31676;SDS011;18385;51.572;6.578;2023-04-03T15:36:54;2.38;;;0.65;;
31676;SDS011;18385;51.572;6.578;2023-04-03T15:39:20;2.67;;;0.73;;
31676;SDS011;18385;51.572;6.578;2023-04-03T15:41:47;3.92;;;0.95;;
31676;SDS011;18385;51.572;6.578;2023-04-03T15:44:13;2.65;;;0.90;;
31676;SDS011;18385;51.572;6.578;2023-04-03T15:46:42;3.17;;;0.90;;
31676;SDS011;18385;51.572;6.578;2023-04-03T15:49:08;4.95;;;1.00;;
31676;SDS011;18385;51.572;6.578;2023-04-03T15:51:35;3.38;;;0.98;;
31676;SDS011;18385;51.572;6.578;2023-04-03T15:54:00;4.20;;;0.88;;
31676;SDS011;18385;51.572;6.578;2023-04-03T15:56:26;3.08;;;1.27;;
31676;SDS011;18385;51.572;6.578;2023-04-03T15:58:52;2.42;;;0.65;;
31676;SDS011;18385;51.572;6.578;2023-04-03T16:01:17;4.45;;;0.80;;
31676;SDS011;18385;51.572;6.578;2023-04-03T16:03:43;2.47;;;0.90;;
31676;SDS011;18385;51.572;6.578;2023-04-03T16:06:13;1.95;;;0.85;;
31676;SDS011;18385;51.572;6.578;2023-04-03T16:08:41;2.08;;;0.70;;
31676;SDS011;18385;51.572;6.578;2023-04-03T16:11:07;4.80;;;1.00;;
31676;SDS011;18385;51.572;6.578;2023-04-03T16:13:33;3.15;;;0.55;;
31676;SDS011;18385;51.572;6.578;2023-04-03T16:15:59;2.97;;;0.90;;
31676;SDS011;18385;51.572;6.578;2023-04-03T16:18:27;2.92;;;0.80;;
31676;SDS011;18385;51.572;6.578;2023-04-03T16:20:53;2.25;;;0.85;;
31676;SDS011;18385;51.572;6.578;2023-04-03T16:23:19;2.03;;;0.55;;
31676;SDS011;18385;51.572;6.578;2023-04-03T16:25:45;2.72;;;0.70;;
31676;SDS011;18385;51.572;6.578;2023-04-03T16:28:15;5.10;;;0.93;;
31676;SDS011;18385;51.572;6.578;2023-04-03T16:30:43;1.58;;;0.60;;
31676;SDS011;18385;51.572;6.578;2023-04-03T16:33:10;3.35;;;0.70;;
31676;SDS011;18385;51.572;6.578;2023-04-03T16:35:37;2.53;;;0.90;;
31676;SDS011;18385;51.572;6.578;2023-04-03T16:38:03;2.40;;;0.80;;
31676;SDS011;18385;51.572;6.578;2023-04-03T16:40:30;4.32;;;0.70;;
31676;SDS011;18385;51.572;6.578;2023-04-03T16:42:59;1.50;;;0.60;;
31676;SDS011;18385;51.572;6.578;2023-04-03T16:45:25;3.10;;;0.63;;
31676;SDS011;18385;51.572;6.578;2023-04-03T16:47:51;2.58;;;0.57;;
31676;SDS011;18385;51.572;6.578;2023-04-03T16:50:17;2.13;;;0.70;;
31676;SDS011;18385;51.572;6.578;2023-04-03T16:52:44;3.85;;;1.10;;
31676;SDS011;18385;51.572;6.578;2023-04-03T16:55:11;2.53;;;0.88;;
31676;SDS011;18385;51.572;6.578;2023-04-03T16:57:37;1.92;;;0.73;;
31676;SDS011;18385;51.572;6.578;2023-04-03T17:00:02;2.30;;;0.60;;
31676;SDS011;18385;51.572;6.578;2023-04-03T17:02:29;4.15;;;1.13;;
31676;SDS011;18385;51.572;6.578;2023-04-03T17:04:55;3.80;;;1.40;;
31676;SDS011;18385;51.572;6.578;2023-04-03T17:07:21;2.40;;;0.73;;
31676;SDS011;18385;51.572;6.578;2023-04-03T17:09:47;3.17;;;0.68;;
31676;SDS011;18385;51.572;6.578;2023-04-03T17:12:14;3.67;;;0.85;;
31676;SDS011;18385;51.572;6.578;2023-04-03T17:14:40;3.45;;;0.88;;